Time;durP1;ratioP1;P1;durP2;ratioP2;P2;SDS_P1;SDS_P2;PMS_P1;PMS_P2;Temp;Humidity;BMP_temperature;BMP_pressure;BME280_temperature;BME280_humidity;BME280_pressure;Samples;Min_cycle;Max_cycle;Signal;HPM_P1;HPM_P2
2023/08/18 00:01:19;;;;;;;7.85;3.10;;;21.30;99.90;;;;;;5031501;28;20494;-79
2023/08/18 00:03:45;;;;;;;7.85;2.85;;;21.30;99.90;;;;;;5031285;28;20044;-80
2023/08/18 00:06:11;;;;;;;4.43;2.30;;;21.30;99.90;;;;;;5031593;28;20075;-79
2023/08/18 00:08:37;;;;;;;7.22;2.85;;;21.40;99.90;;;;;;5029971;28;20032;-79
2023/08/18 00:11:02;;;;;;;4.88;2.80;;;21.40;99.90;;;;;;5031649;28;20037;-79
2023/08/18 00:13:28;;;;;;;5.28;2.58;;;21.40;99.90;;;;;;5030244;28;20100;-79
2023/08/18 00:15:54;;;;;;;5.47;3.03;;;21.40;99.90;;;;;;5031323;28;20083;-79
2023/08/18 00:18:20;;;;;;;5.45;2.30;;;21.40;99.90;;;;;;5031395;28;20048;-79
2023/08/18 00:20:45;;;;;;;4.43;2.83;;;21.40;99.90;;;;;;5030012;28;20029;-79
2023/08/18 00:23:11;;;;;;;3.97;2.88;;;21.40;99.90;;;;;;5029991;28;20047;-78
2023/08/18 00:25:36;;;;;;;5.22;2.60;;;21.40;99.90;;;;;;5031185;28;20510;-79
2023/08/18 00:28:02;;;;;;;4.70;2.22;;;21.40;99.90;;;;;;5030916;28;20501;-79
2023/08/18 00:30:28;;;;;;;4.90;2.25;;;21.40;99.90;;;;;;5029677;28;20030;-79
2023/08/18 00:32:54;;;;;;;6.53;2.55;;;21.40;99.90;;;;;;5031010;28;20039;-79
2023/08/18 00:35:19;;;;;;;9.27;2.85;;;21.30;99.90;;;;;;5030845;28;20021;-79
2023/08/18 00:37:45;;;;;;;5.85;2.92;;;21.20;99.90;;;;;;5030609;28;20037;-79
2023/08/18 00:40:12;;;;;;;5.57;2.58;;;21.10;99.90;;;;;;5030990;28;20049;-79
2023/08/18 00:42:37;;;;;;;8.60;2.47;;;21.00;99.90;;;;;;5030673;28;20033;-79
2023/08/18 00:45:03;;;;;;;7.10;3.03;;;21.00;99.90;;;;;;5030720;28;20037;-79
2023/08/18 00:47:30;;;;;;;4.47;2.15;;;21.00;99.90;;;;;;5030160;28;20030;-79
2023/08/18 00:49:57;;;;;;;7.43;2.35;;;21.00;99.90;;;;;;5029220;28;20520;-79
2023/08/18 00:52:24;;;;;;;6.10;2.40;;;21.00;99.90;;;;;;5029010;28;20049;-80
2023/08/18 00:54:51;;;;;;;5.03;2.13;;;21.00;99.90;;;;;;5030263;28;20143;-79
2023/08/18 00:57:18;;;;;;;5.15;1.95;;;21.10;99.90;;;;;;5029169;28;20025;-80
2023/08/18 00:59:44;;;;;;;6.90;2.70;;;21.20;99.90;;;;;;5029320;28;20509;-80
2023/08/18 01:02:10;;;;;;;4.65;2.35;;;21.20;99.90;;;;;;5030442;28;20029;-79
2023/08/18 01:04:36;;;;;;;3.00;2.20;;;21.30;99.90;;;;;;5030458;28;20456;-80
2023/08/18 01:07:02;;;;;;;6.65;2.20;;;21.30;99.90;;;;;;5030603;28;20025;-79
2023/08/18 01:09:29;;;;;;;6.80;3.03;;;21.20;99.90;;;;;;5030006;28;20108;-79
2023/08/18 01:12:19;;;;;;;8.40;2.50;;;21.20;99.90;;;;;;5030112;28;20391;-79
2023/08/18 01:15:07;;;;;;;3.90;2.50;;;21.20;99.90;;;;;;5030151;28;20061;-79
2023/08/18 01:18:03;;;;;;;8.73;2.38;;;21.10;99.90;;;;;;5030322;28;20049;-79
2023/08/18 01:20:30;;;;;;;8.18;2.60;;;21.00;99.90;;;;;;5028141;28;20538;-79
2023/08/18 01:22:57;;;;;;;4.45;3.03;;;21.00;99.90;;;;;;5029888;28;20091;-80
2023/08/18 01:25:23;;;;;;;5.78;2.55;;;20.90;99.90;;;;;;5029957;28;20022;-79
2023/08/18 01:27:50;;;;;;;5.97;2.90;;;20.90;99.90;;;;;;5030145;28;20033;-79
2023/08/18 01:30:16;;;;;;;4.30;2.80;;;20.90;99.90;;;;;;5028623;28;20025;-79
2023/08/18 01:33:01;;;;;;;8.30;2.90;;;20.90;99.90;;;;;;5029847;28;20040;-79
2023/08/18 01:35:29;;;;;;;5.93;2.95;;;21.00;99.90;;;;;;5029840;28;20026;-79
2023/08/18 01:37:56;;;;;;;5.93;2.90;;;21.00;99.90;;;;;;5029946;28;20079;-80
2023/08/18 01:40:26;;;;;;;10.73;2.60;;;21.00;99.90;;;;;;5029753;28;20018;-80
2023/08/18 01:42:52;;;;;;;8.95;2.78;;;21.00;99.90;;;;;;5028625;28;20057;-80
2023/08/18 01:45:18;;;;;;;4.85;2.50;;;20.90;99.90;;;;;;5028605;28;20135;-79
2023/08/18 01:47:44;;;;;;;5.65;2.40;;;21.00;99.90;;;;;;5029759;28;20056;-79
2023/08/18 01:50:10;;;;;;;7.22;3.08;;;21.00;99.90;;;;;;5028663;28;20033;-80
2023/08/18 01:52:36;;;;;;;5.72;3.63;;;21.00;99.90;;;;;;5028755;28;20052;-80
2023/08/18 01:55:01;;;;;;;3.90;2.53;;;21.00;99.90;;;;;;5029674;28;20032;-80
2023/08/18 01:57:27;;;;;;;5.30;2.55;;;21.00;99.90;;;;;;5029777;28;20017;-78
2023/08/18 01:59:53;;;;;;;5.22;3.22;;;21.00;99.90;;;;;;5029476;28;20037;-79
2023/08/18 02:02:18;;;;;;;2.95;2.50;;;21.00;99.90;;;;;;5029537;28;20041;-80
2023/08/18 02:04:44;;;;;;;10.75;3.05;;;21.00;99.90;;;;;;5028371;28;20026;-79
2023/08/18 02:07:10;;;;;;;3.67;2.90;;;21.00;99.90;;;;;;5030837;28;20033;-79
2023/08/18 02:09:37;;;;;;;8.55;3.33;;;21.00;99.90;;;;;;5033843;28;20026;-79
2023/08/18 02:12:03;;;;;;;5.15;2.85;;;21.00;99.90;;;;;;5033535;28;20088;-79
2023/08/18 02:14:29;;;;;;;9.45;3.40;;;21.00;99.90;;;;;;5032073;28;20061;-79
2023/08/18 02:16:56;;;;;;;5.43;2.90;;;21.10;99.90;;;;;;5033695;28;20083;-80
2023/08/18 02:19:22;;;;;;;6.00;3.22;;;21.00;99.90;;;;;;5033502;28;20034;-79
2023/08/18 02:21:48;;;;;;;7.07;3.35;;;21.10;99.90;;;;;;5031951;28;20032;-79
2023/08/18 02:24:14;;;;;;;6.10;3.33;;;21.10;99.90;;;;;;5032004;28;20421;-80
2023/08/18 02:26:40;;;;;;;6.57;4.40;;;21.20;99.90;;;;;;5032042;28;20069;-79
2023/08/18 02:29:06;;;;;;;5.80;3.20;;;21.30;99.90;;;;;;5033321;28;20048;-79
2023/08/18 02:31:31;;;;;;;7.05;3.58;;;21.40;99.90;;;;;;5031949;28;20026;-79
2023/08/18 02:33:57;;;;;;;7.05;3.53;;;21.40;99.90;;;;;;5033091;28;20034;-79
2023/08/18 02:36:22;;;;;;;8.55;4.15;;;21.50;99.90;;;;;;5032021;28;20033;-79
2023/08/18 02:38:49;;;;;;;5.18;3.40;;;21.50;99.90;;;;;;5031868;28;20021;-79
2023/08/18 02:41:16;;;;;;;5.60;3.63;;;21.60;99.90;;;;;;5033035;28;20032;-79
2023/08/18 02:43:50;;;;;;;5.78;3.45;;;21.60;99.90;;;;;;5032842;28;20044;-79
2023/08/18 02:46:16;;;;;;;5.40;3.03;;;21.60;99.90;;;;;;5033021;28;20037;-80
2023/08/18 02:48:41;;;;;;;17.67;4.43;;;21.60;99.90;;;;;;5032949;28;20635;-79
2023/08/18 02:51:08;;;;;;;4.75;3.03;;;21.50;99.90;;;;;;5032741;28;20025;-79
2023/08/18 02:53:35;;;;;;;9.40;3.90;;;21.50;99.90;;;;;;5031690;28;20025;-80
2023/08/18 02:56:01;;;;;;;6.20;3.10;;;21.50;99.90;;;;;;5032701;28;20032;-80
2023/08/18 02:58:28;;;;;;;5.90;3.42;;;21.40;99.90;;;;;;5031521;28;20029;-80
2023/08/18 03:01:02;;;;;;;5.68;2.92;;;21.20;99.90;;;;;;5032712;28;20063;-79
2023/08/18 03:03:27;;;;;;;8.85;3.65;;;21.10;99.90;;;;;;5032708;28;20041;-79
2023/08/18 03:05:53;;;;;;;4.70;3.55;;;21.00;99.90;;;;;;5031037;28;20072;-79
2023/08/18 03:08:19;;;;;;;5.68;2.80;;;21.00;99.90;;;;;;5031183;28;20029;-79
2023/08/18 03:10:55;;;;;;;6.45;3.00;;;20.90;99.90;;;;;;5031210;28;20079;-79
2023/08/18 03:13:20;;;;;;;;;;;20.80;99.90;;;;;;5032815;28;20485;-79
2023/08/18 03:15:46;;;;;;;5.60;3.20;;;20.80;99.90;;;;;;5032338;28;20429;-80
2023/08/18 03:18:11;;;;;;;4.85;2.88;;;20.80;99.90;;;;;;5030796;28;20555;-79
2023/08/18 03:20:37;;;;;;;7.18;2.78;;;20.70;99.90;;;;;;5032266;28;20068;-79
2023/08/18 03:23:03;;;;;;;11.77;3.05;;;20.70;99.90;;;;;;5032413;28;20042;-79
2023/08/18 03:25:28;;;;;;;5.88;3.47;;;20.60;99.90;;;;;;5030707;28;20029;-79
2023/08/18 03:27:54;;;;;;;6.75;3.42;;;20.60;99.90;;;;;;5031204;28;20033;-80
2023/08/18 03:30:20;;;;;;;5.75;2.83;;;20.60;99.90;;;;;;5031343;28;20029;-79
2023/08/18 03:32:47;;;;;;;5.90;3.17;;;20.60;99.90;;;;;;5031941;28;20028;-78
2023/08/18 03:35:13;;;;;;;3.67;2.33;;;20.60;99.90;;;;;;5031030;28;20060;-79
2023/08/18 03:37:38;;;;;;;5.78;3.05;;;20.60;99.90;;;;;;5032277;28;20065;-80
2023/08/18 03:40:05;;;;;;;6.00;3.45;;;20.50;99.90;;;;;;5033515;28;20072;-80
2023/08/18 03:42:30;;;;;;;12.40;3.53;;;20.60;99.90;;;;;;5030544;28;20049;-79
2023/08/18 03:44:56;;;;;;;10.25;3.45;;;20.60;99.90;;;;;;5031811;28;20025;-79
2023/08/18 03:47:22;;;;;;;6.18;3.60;;;20.60;99.90;;;;;;5031867;28;20029;-80
2023/08/18 03:49:47;;;;;;;27.23;4.15;;;20.60;99.90;;;;;;5032008;28;20391;-80
2023/08/18 03:52:13;;;;;;;4.03;2.90;;;20.60;99.90;;;;;;5030532;28;20056;-80
2023/08/18 03:54:39;;;;;;;4.82;3.55;;;20.70;99.90;;;;;;5031684;28;20038;-80
2023/08/18 03:57:04;;;;;;;6.07;3.88;;;20.70;99.90;;;;;;5031799;28;20079;-79
2023/08/18 03:59:30;;;;;;;5.78;3.22;;;20.80;99.90;;;;;;5030231;28;20521;-80
2023/08/18 04:01:55;;;;;;;5.22;3.17;;;20.90;99.90;;;;;;5031571;28;20529;-79
2023/08/18 04:04:21;;;;;;;7.03;3.25;;;20.90;99.90;;;;;;5031304;28;20129;-79
2023/08/18 04:06:47;;;;;;;5.18;3.55;;;21.00;99.90;;;;;;5030058;28;20116;-79
2023/08/18 04:09:15;;;;;;;9.88;3.67;;;21.00;99.90;;;;;;5031238;28;20026;-80
2023/08/18 04:11:42;;;;;;;5.28;3.00;;;20.90;99.90;;;;;;5031267;28;20044;-79
2023/08/18 04:14:09;;;;;;;4.00;2.78;;;20.80;99.90;;;;;;5029814;28;20053;-80
2023/08/18 04:16:34;;;;;;;9.10;3.13;;;20.70;99.90;;;;;;5031299;28;20033;-80
2023/08/18 04:19:00;;;;;;;5.03;3.15;;;20.80;99.90;;;;;;5029978;28;20021;-79
2023/08/18 04:21:27;;;;;;;5.38;3.15;;;20.80;99.90;;;;;;5031158;28;20067;-80
2023/08/18 04:23:53;;;;;;;5.53;3.50;;;20.80;99.90;;;;;;5030933;28;20044;-81
2023/08/18 04:26:19;;;;;;;5.90;3.50;;;20.90;99.90;;;;;;5029665;28;20061;-80
2023/08/18 04:28:46;;;;;;;7.88;3.08;;;21.00;99.90;;;;;;5030309;28;20029;-79
2023/08/18 04:31:12;;;;;;;5.82;3.22;;;21.10;99.90;;;;;;5030777;28;20113;-77
2023/08/18 04:33:38;;;;;;;11.07;5.82;;;21.20;99.90;;;;;;5030205;28;20037;-79
2023/08/18 04:36:04;;;;;;;9.82;6.38;;;21.30;99.90;;;;;;5030494;28;20414;-80
2023/08/18 04:38:30;;;;;;;8.73;3.72;;;21.40;99.90;;;;;;5029153;28;20029;-80
2023/08/18 04:41:00;;;;;;;5.40;4.10;;;21.60;99.90;;;;;;5029239;28;20095;-80
2023/08/18 04:43:27;;;;;;;5.95;3.30;;;21.70;99.90;;;;;;5030098;28;20092;-78
2023/08/18 04:45:53;;;;;;;6.72;3.72;;;21.90;99.90;;;;;;5029158;28;20018;-80
2023/08/18 04:48:19;;;;;;;8.30;3.33;;;22.00;99.90;;;;;;5030626;28;20095;-80
2023/08/18 04:50:45;;;;;;;8.77;3.42;;;22.10;99.90;;;;;;5028522;28;20029;-80
2023/08/18 04:53:11;;;;;;;5.43;3.33;;;22.10;99.90;;;;;;5030388;28;20624;-80
2023/08/18 04:55:36;;;;;;;5.32;3.47;;;22.20;99.90;;;;;;5029121;28;20030;-79
2023/08/18 04:58:02;;;;;;;5.90;3.33;;;22.30;99.90;;;;;;5030123;28;20096;-79
2023/08/18 05:00:31;;;;;;;9.55;3.88;;;22.40;99.90;;;;;;5030309;28;20034;-81
2023/08/18 05:02:56;;;;;;;7.72;3.25;;;22.60;99.90;;;;;;5030110;28;20043;-80
2023/08/18 05:05:22;;;;;;;4.90;3.10;;;22.70;99.90;;;;;;5030175;28;20108;-80
2023/08/18 05:07:48;;;;;;;5.80;3.10;;;22.90;99.90;;;;;;5030452;28;20034;-79
2023/08/18 05:10:13;;;;;;;4.93;3.60;;;23.00;99.90;;;;;;5029908;28;20068;-79
2023/08/18 05:12:40;;;;;;;4.25;3.10;;;23.10;99.90;;;;;;5029602;28;20037;-80
2023/08/18 05:15:07;;;;;;;4.55;2.75;;;23.10;99.90;;;;;;5030021;28;20030;-80
2023/08/18 05:17:33;;;;;;;4.60;3.40;;;23.00;99.90;;;;;;5029744;28;20084;-79
2023/08/18 05:19:59;;;;;;;13.52;3.30;;;22.90;99.90;;;;;;5030001;28;20025;-79
2023/08/18 05:22:25;;;;;;;5.97;3.28;;;22.80;99.90;;;;;;5034902;28;20576;-80
2023/08/18 05:24:50;;;;;;;7.47;5.00;;;22.80;99.90;;;;;;5041475;28;20030;-80
2023/08/18 05:27:16;;;;;;;9.48;3.55;;;22.70;99.90;;;;;;5049252;28;20039;-80
2023/08/18 05:29:43;;;;;;;6.63;3.40;;;22.70;99.90;;;;;;5034038;28;20076;-80
2023/08/18 05:32:08;;;;;;;4.35;3.10;;;22.70;99.90;;;;;;5030218;28;20026;-80
2023/08/18 05:34:34;;;;;;;5.38;3.50;;;22.80;99.90;;;;;;5037003;28;20036;-80
2023/08/18 05:37:00;;;;;;;5.13;3.65;;;22.80;99.90;;;;;;5039494;28;20075;-80
2023/08/18 05:39:25;;;;;;;6.43;3.75;;;22.90;99.90;;;;;;5044477;28;20033;-80
2023/08/18 05:41:51;;;;;;;9.75;3.95;;;23.10;99.90;;;;;;5036684;28;20060;-79
2023/08/18 05:44:16;;;;;;;10.73;3.70;;;23.20;99.90;;;;;;5028656;28;20026;-80
2023/08/18 05:46:42;;;;;;;9.65;3.85;;;23.30;99.90;;;;;;5029612;28;20029;-80
2023/08/18 05:49:08;;;;;;;5.60;3.67;;;23.30;99.90;;;;;;5028332;28;20037;-80
2023/08/18 05:51:34;;;;;;;7.00;3.55;;;23.40;99.90;;;;;;5029301;28;20026;-80
2023/08/18 05:53:59;;;;;;;5.75;4.05;;;23.40;99.90;;;;;;5031087;28;20599;-80
2023/08/18 05:56:25;;;;;;;6.55;4.03;;;23.40;99.90;;;;;;5037821;28;20037;-81
2023/08/18 05:58:50;;;;;;;7.13;3.85;;;23.40;99.90;;;;;;5043320;28;20072;-81
2023/08/18 06:01:17;;;;;;;8.88;4.35;;;23.50;99.90;;;;;;5031890;28;20436;-79
2023/08/18 06:03:43;;;;;;;14.23;4.40;;;23.50;99.90;;;;;;5047502;28;20397;-80
2023/08/18 06:06:08;;;;;;;7.68;4.07;;;23.50;99.90;;;;;;5047672;28;20124;-80
2023/08/18 06:08:34;;;;;;;9.65;4.05;;;23.50;99.90;;;;;;5047651;28;20123;-81
2023/08/18 06:11:00;;;;;;;5.97;3.88;;;23.50;99.90;;;;;;5048647;28;20112;-79
2023/08/18 06:13:26;;;;;;;7.22;3.72;;;23.50;99.90;;;;;;5048798;28;20228;-81
2023/08/18 06:15:54;;;;;;;6.47;3.97;;;23.60;99.90;;;;;;5049293;28;20044;-80
2023/08/18 06:18:20;;;;;;;8.52;4.43;;;23.70;99.90;;;;;;5047677;28;20029;-80
2023/08/18 06:20:46;;;;;;;8.68;4.30;;;23.80;99.90;;;;;;5047751;28;20032;-79
2023/08/18 06:23:12;;;;;;;8.68;4.38;;;24.10;99.90;;;;;;5048964;28;20531;-80
2023/08/18 06:25:38;;;;;;;7.00;3.53;;;24.30;99.90;;;;;;5047910;28;20753;-80
2023/08/18 06:28:06;;;;;;;14.75;4.22;;;24.60;99.90;;;;;;5048824;28;20029;-80
2023/08/18 06:30:32;;;;;;;6.45;3.80;;;24.90;99.90;;;;;;5048919;28;20442;-80
2023/08/18 06:32:58;;;;;;;5.88;3.45;;;25.30;99.90;;;;;;5049171;28;20056;-79
2023/08/18 06:35:23;;;;;;;14.15;3.72;;;25.40;99.90;;;;;;5048787;28;20033;-80
2023/08/18 06:37:49;;;;;;;6.38;3.42;;;25.60;99.90;;;;;;5047029;28;20032;-80
2023/08/18 06:40:15;;;;;;;5.63;3.72;;;25.90;99.90;;;;;;5048944;28;20038;-78
2023/08/18 06:42:41;;;;;;;6.32;3.80;;;26.20;99.90;;;;;;5047283;28;20026;-78
2023/08/18 06:45:07;;;;;;;14.45;4.10;;;26.50;99.90;;;;;;5046105;28;20816;-82
2023/08/18 06:47:33;;;;;;;5.30;3.53;;;27.00;99.90;;;;;;5037458;28;20536;-80
2023/08/18 06:49:59;;;;;;;9.70;3.40;;;27.40;99.90;;;;;;5057085;28;20034;-81
2023/08/18 06:52:26;;;;;;;5.35;2.88;;;27.70;99.90;;;;;;5028879;28;20509;-81
2023/08/18 06:54:52;;;;;;;6.55;3.53;;;28.00;99.90;;;;;;5032405;28;20068;-81
2023/08/18 06:57:17;;;;;;;13.63;3.20;;;28.00;99.80;;;;;;5032622;28;20056;-80
2023/08/18 06:59:43;;;;;;;10.27;3.00;;;28.00;99.00;;;;;;5032565;28;20119;-79
2023/08/18 07:02:09;;;;;;;5.43;2.92;;;27.80;98.70;;;;;;5035452;28;20037;-81
2023/08/18 07:04:34;;;;;;;5.72;3.10;;;27.90;98.30;;;;;;5048318;28;20510;-81
2023/08/18 07:07:00;;;;;;;10.15;3.20;;;28.40;97.80;;;;;;5031176;28;20021;-80
2023/08/18 07:09:26;;;;;;;5.53;3.05;;;28.60;96.30;;;;;;5034966;28;20038;-79
2023/08/18 07:11:51;;;;;;;9.80;3.58;;;29.40;94.40;;;;;;5032559;28;20025;-79
2023/08/18 07:14:17;;;;;;;4.40;2.45;;;30.30;91.70;;;;;;5030990;28;20128;-80
2023/08/18 07:16:44;;;;;;;6.15;4.03;;;30.90;86.30;;;;;;5031377;28;20033;-80
2023/08/18 07:19:10;;;;;;;8.10;2.88;;;31.40;80.70;;;;;;5046808;28;20021;-79
2023/08/18 07:21:35;;;;;;;5.78;2.70;;;31.80;77.90;;;;;;5039676;28;20485;-80
2023/08/18 07:24:01;;;;;;;9.45;3.00;;;32.20;75.50;;;;;;5048121;28;20124;-80
2023/08/18 07:26:27;;;;;;;6.70;2.83;;;32.60;71.50;;;;;;5034969;28;20059;-78
2023/08/18 07:28:53;;;;;;;6.10;3.13;;;33.10;69.00;;;;;;5029510;28;20509;-80
2023/08/18 07:31:18;;;;;;;12.75;2.95;;;33.10;65.80;;;;;;5028844;28;20030;-79
2023/08/18 07:33:44;;;;;;;5.57;2.97;;;33.00;64.90;;;;;;5029209;28;20025;-79
2023/08/18 07:36:10;;;;;;;6.50;2.55;;;32.50;64.20;;;;;;5029013;28;20057;-80
2023/08/18 07:38:36;;;;;;;4.60;2.78;;;31.80;65.60;;;;;;5030755;28;20025;-79
2023/08/18 07:41:02;;;;;;;7.55;3.42;;;31.10;68.00;;;;;;5031256;28;20024;-79
2023/08/18 07:43:27;;;;;;;7.10;3.13;;;30.50;70.30;;;;;;5029963;28;20517;-80
2023/08/18 07:45:55;;;;;;;9.15;3.17;;;30.10;72.20;;;;;;5030560;28;20091;-80
2023/08/18 07:48:20;;;;;;;6.65;3.70;;;29.60;72.80;;;;;;5030446;28;20033;-80
2023/08/18 07:50:46;;;;;;;9.10;4.47;;;28.90;76.20;;;;;;5035494;28;20520;-80
2023/08/18 07:53:12;;;;;;;9.75;4.00;;;28.40;78.50;;;;;;5046835;28;20108;-81
2023/08/18 07:55:37;;;;;;;16.13;4.80;;;28.00;82.10;;;;;;5039542;28;20017;-80
2023/08/18 07:58:04;;;;;;;7.90;4.85;;;27.70;84.60;;;;;;5035245;28;20033;-80
2023/08/18 08:00:30;;;;;;;8.80;4.40;;;27.60;86.00;;;;;;5030185;28;20017;-80
2023/08/18 08:02:57;;;;;;;7.22;3.85;;;27.30;88.00;;;;;;5031054;28;20129;-80
2023/08/18 08:05:23;;;;;;;12.60;4.93;;;27.10;89.60;;;;;;5038641;28;20016;-79
2023/08/18 08:07:49;;;;;;;9.35;4.93;;;27.00;91.10;;;;;;5042583;28;20033;-80
2023/08/18 08:10:15;;;;;;;18.35;6.15;;;27.00;91.90;;;;;;5039859;28;20018;-80
2023/08/18 08:12:41;;;;;;;16.10;5.00;;;26.90;92.50;;;;;;5041279;28;20053;-80
2023/08/18 08:15:09;;;;;;;9.18;5.28;;;26.90;92.80;;;;;;5039206;28;20021;-81
2023/08/18 08:17:35;;;;;;;11.27;4.93;;;26.90;93.40;;;;;;5041753;28;20029;-79
2023/08/18 08:20:05;;;;;;;11.45;4.90;;;26.90;93.70;;;;;;5040200;28;20018;-79
2023/08/18 08:22:31;;;;;;;9.73;4.72;;;26.80;93.50;;;;;;5036846;28;20065;-79
2023/08/18 08:24:57;;;;;;;10.20;4.68;;;26.70;94.00;;;;;;5041684;28;20057;-80
2023/08/18 08:27:23;;;;;;;15.98;4.82;;;26.70;94.50;;;;;;5030191;28;20037;-78
2023/08/18 08:29:49;;;;;;;13.02;4.32;;;26.80;95.30;;;;;;5030615;28;20054;-79
2023/08/18 08:32:14;;;;;;;12.45;3.65;;;26.80;95.10;;;;;;5029631;28;20029;-80
2023/08/18 08:34:48;;;;;;;14.35;4.18;;;26.90;95.10;;;;;;5030833;28;20034;-79
2023/08/18 08:37:15;;;;;;;8.73;3.45;;;26.90;95.70;;;;;;5030908;28;20025;-79
2023/08/18 08:39:40;;;;;;;10.93;3.17;;;26.90;95.70;;;;;;5030612;28;20052;-79
2023/08/18 08:42:06;;;;;;;9.85;3.45;;;26.90;96.10;;;;;;5030257;28;20494;-79
2023/08/18 08:44:32;;;;;;;11.02;3.78;;;27.00;96.10;;;;;;5030659;28;20383;-79
2023/08/18 08:47:00;;;;;;;4.55;2.97;;;26.90;95.30;;;;;;5030840;28;20189;-80
2023/08/18 08:49:29;;;;;;;7.03;3.60;;;26.90;95.20;;;;;;5030605;28;20108;-79
2023/08/18 08:51:57;;;;;;;13.05;3.55;;;26.90;95.70;;;;;;5028986;28;20068;-79
2023/08/18 08:54:26;;;;;;;10.73;4.07;;;27.00;95.10;;;;;;5029005;28;20022;-79
2023/08/18 08:56:52;;;;;;;6.55;3.55;;;27.00;95.80;;;;;;5029018;28;20034;-80
2023/08/18 08:59:18;;;;;;;7.40;3.13;;;27.10;96.20;;;;;;5027649;28;20083;-79
2023/08/18 09:01:44;;;;;;;5.88;3.80;;;27.30;95.40;;;;;;5027491;28;20064;-78
2023/08/18 09:04:11;;;;;;;8.80;3.50;;;27.30;94.20;;;;;;5028926;28;20099;-80
2023/08/18 09:06:37;;;;;;;6.45;3.72;;;27.30;94.00;;;;;;5028232;28;20114;-80
2023/08/18 09:09:03;;;;;;;19.23;10.38;;;27.30;94.30;;;;;;5029054;28;20132;-80
2023/08/18 09:11:42;;;;;;;6.35;4.28;;;27.30;94.60;;;;;;5028431;28;20037;-79
2023/08/18 09:14:11;;;;;;;4.95;3.05;;;27.30;94.40;;;;;;5030166;28;20126;-80
2023/08/18 09:16:37;;;;;;;8.45;3.45;;;27.30;94.60;;;;;;5029821;28;20026;-80
2023/08/18 09:19:03;;;;;;;8.35;4.00;;;27.40;94.90;;;;;;5030157;28;20022;-80
2023/08/18 09:21:29;;;;;;;6.47;3.60;;;27.40;93.80;;;;;;5028769;28;20041;-81
2023/08/18 09:23:56;;;;;;;15.98;3.67;;;27.40;94.00;;;;;;5029975;28;20033;-79
2023/08/18 09:26:22;;;;;;;9.75;3.78;;;27.30;94.80;;;;;;5028605;28;20029;-81
2023/08/18 09:28:47;;;;;;;5.00;3.42;;;27.30;93.40;;;;;;5028758;28;20025;-79
2023/08/18 09:31:13;;;;;;;10.07;3.35;;;27.20;94.00;;;;;;5029886;28;20037;-81
2023/08/18 09:33:39;;;;;;;5.72;3.45;;;27.30;94.70;;;;;;5028935;28;20088;-79
2023/08/18 09:36:05;;;;;;;10.27;4.18;;;27.30;94.40;;;;;;5029902;28;20026;-81
2023/08/18 09:38:44;;;;;;;7.00;4.50;;;27.40;94.30;;;;;;5030096;28;20026;-79
2023/08/18 09:41:11;;;;;;;9.80;4.28;;;27.40;93.50;;;;;;5028328;28;20025;-79
2023/08/18 09:43:37;;;;;;;6.00;3.75;;;27.40;93.30;;;;;;5028494;28;20033;-80
2023/08/18 09:46:04;;;;;;;10.27;3.42;;;27.40;93.60;;;;;;5028515;28;20035;-79
2023/08/18 09:48:34;;;;;;;10.43;3.72;;;27.30;93.50;;;;;;5029721;28;20394;-79
2023/08/18 09:51:01;;;;;;;5.22;3.75;;;27.20;93.70;;;;;;5029513;28;20036;-79
2023/08/18 09:53:32;;;;;;;9.52;3.45;;;27.10;93.80;;;;;;5028228;28;20410;-79
2023/08/18 09:56:04;;;;;;;6.63;3.28;;;27.20;94.40;;;;;;5028201;28;20032;-80
2023/08/18 09:58:50;;;;;;;6.38;3.67;;;27.10;94.50;;;;;;5028466;28;20034;-80
2023/08/18 10:01:17;;;;;;;7.88;4.13;;;27.10;95.30;;;;;;5028617;28;20017;-79
2023/08/18 10:03:46;;;;;;;8.32;3.95;;;27.00;95.00;;;;;;5027850;28;20045;-79
2023/08/18 10:06:12;;;;;;;7.97;3.80;;;26.90;95.60;;;;;;5028137;28;20138;-79
2023/08/18 10:08:40;;;;;;;7.22;4.07;;;26.90;96.30;;;;;;5029194;28;20037;-78
2023/08/18 10:11:07;;;;;;;8.23;4.47;;;26.90;95.80;;;;;;5029162;28;20404;-79
2023/08/18 10:13:33;;;;;;;6.72;3.63;;;26.90;96.10;;;;;;5029165;28;20057;-79
2023/08/18 10:16:05;;;;;;;9.10;4.22;;;26.90;96.10;;;;;;5028143;28;20057;-80
2023/08/18 10:18:31;;;;;;;13.45;4.85;;;26.90;95.40;;;;;;5029317;28;20033;-79
2023/08/18 10:20:58;;;;;;;6.50;3.42;;;26.90;95.80;;;;;;5029128;28;20032;-79
2023/08/18 10:23:24;;;;;;;5.90;4.03;;;27.10;95.80;;;;;;5027909;28;20124;-79
2023/08/18 10:25:51;;;;;;;5.45;3.72;;;27.30;95.50;;;;;;5027881;28;20462;-79
2023/08/18 10:28:20;;;;;;;9.70;3.78;;;27.50;94.00;;;;;;5032290;28;20494;-80
2023/08/18 10:30:51;;;;;;;5.47;3.53;;;27.80;93.20;;;;;;5031721;28;20040;-79
2023/08/18 10:33:31;;;;;;;8.73;3.47;;;27.90;93.00;;;;;;5031643;28;20379;-79
2023/08/18 10:35:58;;;;;;;8.70;3.55;;;28.10;91.70;;;;;;5032000;28;20029;-80
2023/08/18 10:38:29;;;;;;;6.00;4.05;;;28.20;92.10;;;;;;5032892;28;20410;-80
2023/08/18 10:40:55;;;;;;;8.43;3.70;;;28.60;91.40;;;;;;5031553;28;20029;-80
2023/08/18 10:43:20;;;;;;;8.77;3.03;;;28.70;90.90;;;;;;5032656;28;20105;-79
2023/08/18 10:45:50;;;;;;;11.93;3.78;;;28.90;90.70;;;;;;5032937;28;20622;-80
2023/08/18 10:48:16;;;;;;;6.85;3.55;;;29.00;89.00;;;;;;5032640;28;20025;-79
2023/08/18 10:50:44;;;;;;;5.03;3.45;;;28.90;90.30;;;;;;5032448;28;20052;-79
2023/08/18 10:53:13;;;;;;;7.45;3.65;;;29.10;90.40;;;;;;5031959;28;20559;-79
2023/08/18 10:55:41;;;;;;;5.82;3.10;;;29.20;90.20;;;;;;5032795;28;20033;-80
2023/08/18 10:58:06;;;;;;;7.95;3.20;;;28.90;84.30;;;;;;5031349;28;20413;-79
2023/08/18 11:00:34;;;;;;;8.00;3.42;;;28.80;87.80;;;;;;5030644;28;20108;-81
2023/08/18 11:02:59;;;;;;;5.03;3.30;;;28.90;88.20;;;;;;5030748;28;20108;-80
2023/08/18 11:05:25;;;;;;;4.25;2.92;;;28.90;87.30;;;;;;5031236;28;20402;-80
2023/08/18 11:07:51;;;;;;;11.45;3.47;;;28.80;88.10;;;;;;5032169;28;20028;-80
2023/08/18 11:10:19;;;;;;;4.82;2.83;;;28.70;89.40;;;;;;5032565;28;20473;-80
2023/08/18 11:12:46;;;;;;;4.75;3.38;;;28.70;90.30;;;;;;5031011;28;20068;-80
2023/08/18 11:15:13;;;;;;;6.25;3.40;;;28.70;90.30;;;;;;5030915;28;20040;-80
2023/08/18 11:17:39;;;;;;;7.47;3.17;;;28.60;90.10;;;;;;5032165;28;20033;-80
2023/08/18 11:20:11;;;;;;;6.72;3.13;;;28.50;89.60;;;;;;5030933;28;20484;-81
2023/08/18 11:22:38;;;;;;;9.23;3.40;;;28.40;89.90;;;;;;5032265;28;20075;-78
2023/08/18 11:25:05;;;;;;;4.55;3.30;;;28.40;88.90;;;;;;5031896;28;20025;-81
2023/08/18 11:27:32;;;;;;;4.57;3.22;;;28.30;88.20;;;;;;5031873;28;20029;-80
2023/08/18 11:29:58;;;;;;;6.65;3.28;;;28.20;89.00;;;;;;5031149;28;20028;-80
2023/08/18 11:32:24;;;;;;;7.47;3.05;;;28.10;88.40;;;;;;5031898;28;20048;-81
2023/08/18 11:34:51;;;;;;;7.00;3.40;;;28.10;88.70;;;;;;5031866;28;20344;-80
2023/08/18 11:37:20;;;;;;;3.97;2.72;;;28.10;88.70;;;;;;5031852;28;20028;-80
2023/08/18 11:39:46;;;;;;;4.60;2.83;;;28.00;87.80;;;;;;5032123;28;20052;-81
2023/08/18 11:42:12;;;;;;;7.10;3.10;;;27.90;89.10;;;;;;5031462;28;20033;-81
2023/08/18 11:44:38;;;;;;;5.03;3.35;;;27.90;87.20;;;;;;5031554;28;20026;-80
2023/08/18 11:47:08;;;;;;;5.90;3.53;;;27.70;87.10;;;;;;5031708;28;20045;-80
2023/08/18 11:49:35;;;;;;;6.65;3.20;;;27.70;87.60;;;;;;5030568;28;20057;-80
2023/08/18 11:52:06;;;;;;;6.38;3.30;;;27.70;88.90;;;;;;5031428;28;20028;-80
2023/08/18 11:54:34;;;;;;;8.77;3.15;;;27.70;89.20;;;;;;5030424;28;20025;-79
2023/08/18 11:57:00;;;;;;;5.65;2.90;;;27.70;90.20;;;;;;5031767;28;20028;-80
2023/08/18 11:59:26;;;;;;;6.70;3.58;;;27.60;88.10;;;;;;5030215;28;20071;-80
2023/08/18 12:01:56;;;;;;;5.10;3.22;;;27.60;90.00;;;;;;5031427;28;20037;-80
2023/08/18 12:04:26;;;;;;;9.07;3.42;;;27.50;91.10;;;;;;5030154;28;20395;-80
2023/08/18 12:06:52;;;;;;;5.03;3.47;;;27.50;92.20;;;;;;5031521;28;20030;-80
2023/08/18 12:09:19;;;;;;;9.00;4.03;;;27.50;91.80;;;;;;5031103;28;20029;-81
2023/08/18 12:11:44;;;;;;;6.80;3.75;;;27.50;92.60;;;;;;5031239;28;20023;-81
2023/08/18 12:14:10;;;;;;;7.25;4.13;;;27.40;92.90;;;;;;5029498;28;20546;-79
2023/08/18 12:16:36;;;;;;;6.03;3.28;;;27.40;93.30;;;;;;5030006;28;20030;-80
2023/08/18 12:19:05;;;;;;;11.15;4.25;;;27.50;93.20;;;;;;5029762;28;20025;-79
2023/08/18 12:21:31;;;;;;;11.35;3.75;;;27.50;93.60;;;;;;5030838;28;20525;-80
2023/08/18 12:23:58;;;;;;;5.80;3.80;;;27.60;93.60;;;;;;5029726;28;20033;-80
2023/08/18 12:26:24;;;;;;;8.55;3.40;;;27.60;93.90;;;;;;5031002;28;20064;-80
2023/08/18 12:28:50;;;;;;;7.55;3.38;;;27.50;93.50;;;;;;5030681;28;20104;-80
2023/08/18 12:31:18;;;;;;;6.38;3.90;;;27.70;93.90;;;;;;5029404;28;20026;-79
2023/08/18 12:33:44;;;;;;;9.40;3.50;;;27.80;94.30;;;;;;5031010;28;20030;-79
2023/08/18 12:36:10;;;;;;;9.23;3.90;;;27.80;93.60;;;;;;5030903;28;20036;-79
2023/08/18 12:38:36;;;;;;;6.78;3.72;;;27.90;94.00;;;;;;5030738;28;20026;-80
2023/08/18 12:41:03;;;;;;;7.90;3.67;;;28.00;93.80;;;;;;5030675;28;20101;-80
2023/08/18 12:43:29;;;;;;;8.27;3.80;;;28.10;93.50;;;;;;5029366;28;20038;-78